sensor_id;sensor_type;location;lat;lon;timestamp;P1;durP1;ratioP1;P2;durP2;ratioP2
67585;SDS011;55785;47.946;20.540;2024-01-10T00:01:50;0.70;;;0.70;;
67585;SDS011;55785;47.946;20.540;2024-01-10T00:04:16;2.17;;;1.97;;
67585;SDS011;55785;47.946;20.540;2024-01-10T00:06:41;1.03;;;1.03;;
67585;SDS011;55785;47.946;20.540;2024-01-10T00:09:06;1.00;;;1.00;;
67585;SDS011;55785;47.946;20.540;2024-01-10T00:11:32;1.67;;;1.57;;
67585;SDS011;55785;47.946;20.540;2024-01-10T00:13:57;3.50;;;2.53;;
67585;SDS011;55785;47.946;20.540;2024-01-10T00:16:22;3.33;;;1.93;;
67585;SDS011;55785;47.946;20.540;2024-01-10T00:18:48;5.27;;;2.57;;
67585;SDS011;55785;47.946;20.540;2024-01-10T00:21:13;1.40;;;1.30;;
67585;SDS011;55785;47.946;20.540;2024-01-10T00:23:39;2.87;;;1.83;;
67585;SDS011;55785;47.946;20.540;2024-01-10T00:26:04;0.40;;;0.40;;
67585;SDS011;55785;47.946;20.540;2024-01-10T00:28:29;8.37;;;3.87;;
67585;SDS011;55785;47.946;20.540;2024-01-10T00:30:54;8.50;;;4.13;;
67585;SDS011;55785;47.946;20.540;2024-01-10T00:33:20;8.90;;;5.50;;
67585;SDS011;55785;47.946;20.540;2024-01-10T00:35:45;4.67;;;3.80;;
67585;SDS011;55785;47.946;20.540;2024-01-10T00:38:10;4.00;;;3.70;;
67585;SDS011;55785;47.946;20.540;2024-01-10T00:40:36;2.90;;;2.13;;
67585;SDS011;55785;47.946;20.540;2024-01-10T00:43:02;1.97;;;1.87;;
67585;SDS011;55785;47.946;20.540;2024-01-10T00:45:28;0.30;;;0.30;;
67585;SDS011;55785;47.946;20.540;2024-01-10T00:47:53;0.50;;;0.50;;
67585;SDS011;55785;47.946;20.540;2024-01-10T00:50:18;0.93;;;0.93;;
67585;SDS011;55785;47.946;20.540;2024-01-10T00:52:44;1.50;;;1.40;;
67585;SDS011;55785;47.946;20.540;2024-01-10T00:55:10;1.27;;;1.13;;
67585;SDS011;55785;47.946;20.540;2024-01-10T00:57:35;0.43;;;0.43;;
67585;SDS011;55785;47.946;20.540;2024-01-10T01:00:01;1.07;;;0.90;;
67585;SDS011;55785;47.946;20.540;2024-01-10T01:02:27;0.97;;;0.97;;
67585;SDS011;55785;47.946;20.540;2024-01-10T01:04:52;0.70;;;0.70;;
67585;SDS011;55785;47.946;20.540;2024-01-10T01:07:17;0.90;;;0.87;;
67585;SDS011;55785;47.946;20.540;2024-01-10T01:09:43;0.60;;;0.60;;
67585;SDS011;55785;47.946;20.540;2024-01-10T01:12:08;1.33;;;1.23;;
67585;SDS011;55785;47.946;20.540;2024-01-10T01:14:33;0.77;;;0.77;;
67585;SDS011;55785;47.946;20.540;2024-01-10T01:16:59;0.80;;;0.80;;
67585;SDS011;55785;47.946;20.540;2024-01-10T01:19:24;1.23;;;0.93;;
67585;SDS011;55785;47.946;20.540;2024-01-10T01:21:49;0.70;;;0.70;;
67585;SDS011;55785;47.946;20.540;2024-01-10T01:24:15;1.13;;;0.93;;
67585;SDS011;55785;47.946;20.540;2024-01-10T01:26:40;0.60;;;0.60;;
67585;SDS011;55785;47.946;20.540;2024-01-10T01:29:06;2.03;;;1.53;;
67585;SDS011;55785;47.946;20.540;2024-01-10T01:31:31;1.23;;;1.13;;
67585;SDS011;55785;47.946;20.540;2024-01-10T01:33:56;2.63;;;2.20;;
67585;SDS011;55785;47.946;20.540;2024-01-10T01:36:22;1.50;;;0.67;;
67585;SDS011;55785;47.946;20.540;2024-01-10T01:38:47;0.97;;;0.90;;
67585;SDS011;55785;47.946;20.540;2024-01-10T01:41:12;0.50;;;0.50;;
67585;SDS011;55785;47.946;20.540;2024-01-10T01:43:38;0.67;;;0.67;;
67585;SDS011;55785;47.946;20.540;2024-01-10T01:46:03;0.60;;;0.60;;
67585;SDS011;55785;47.946;20.540;2024-01-10T01:48:29;0.60;;;0.60;;
67585;SDS011;55785;47.946;20.540;2024-01-10T01:50:56;0.43;;;0.43;;
67585;SDS011;55785;47.946;20.540;2024-01-10T01:53:25;0.60;;;0.60;;
67585;SDS011;55785;47.946;20.540;2024-01-10T01:55:51;0.60;;;0.60;;
67585;SDS011;55785;47.946;20.540;2024-01-10T01:58:17;1.37;;;1.27;;
67585;SDS011;55785;47.946;20.540;2024-01-10T02:00:42;2.70;;;1.00;;
67585;SDS011;55785;47.946;20.540;2024-01-10T02:03:08;0.40;;;0.40;;
67585;SDS011;55785;47.946;20.540;2024-01-10T02:05:35;0.60;;;0.60;;
67585;SDS011;55785;47.946;20.540;2024-01-10T02:08:01;1.30;;;0.50;;
67585;SDS011;55785;47.946;20.540;2024-01-10T02:10:26;0.47;;;0.47;;
67585;SDS011;55785;47.946;20.540;2024-01-10T02:12:52;0.33;;;0.33;;
67585;SDS011;55785;47.946;20.540;2024-01-10T02:15:17;0.83;;;0.80;;
67585;SDS011;55785;47.946;20.540;2024-01-10T02:17:42;0.50;;;0.50;;
67585;SDS011;55785;47.946;20.540;2024-01-10T02:20:14;0.57;;;0.57;;
67585;SDS011;55785;47.946;20.540;2024-01-10T02:22:41;0.63;;;0.37;;
67585;SDS011;55785;47.946;20.540;2024-01-10T02:25:09;0.50;;;0.50;;
67585;SDS011;55785;47.946;20.540;2024-01-10T02:27:35;0.40;;;0.40;;
67585;SDS011;55785;47.946;20.540;2024-01-10T02:30:01;0.40;;;0.40;;
67585;SDS011;55785;47.946;20.540;2024-01-10T02:32:28;0.40;;;0.40;;
67585;SDS011;55785;47.946;20.540;2024-01-10T02:34:53;0.50;;;0.50;;
67585;SDS011;55785;47.946;20.540;2024-01-10T02:37:19;1.00;;;0.93;;
67585;SDS011;55785;47.946;20.540;2024-01-10T02:39:44;0.50;;;0.50;;
67585;SDS011;55785;47.946;20.540;2024-01-10T02:42:09;1.23;;;1.13;;
67585;SDS011;55785;47.946;20.540;2024-01-10T02:44:35;0.60;;;0.60;;
67585;SDS011;55785;47.946;20.540;2024-01-10T02:47:00;2.07;;;0.90;;
67585;SDS011;55785;47.946;20.540;2024-01-10T02:49:25;0.40;;;0.40;;
67585;SDS011;55785;47.946;20.540;2024-01-10T02:51:51;1.23;;;1.13;;
67585;SDS011;55785;47.946;20.540;2024-01-10T02:54:16;1.03;;;0.40;;
67585;SDS011;55785;47.946;20.540;2024-01-10T02:56:41;0.87;;;0.53;;
67585;SDS011;55785;47.946;20.540;2024-01-10T02:59:07;0.60;;;0.60;;
67585;SDS011;55785;47.946;20.540;2024-01-10T03:01:32;0.50;;;0.50;;
67585;SDS011;55785;47.946;20.540;2024-01-10T03:03:57;0.23;;;0.23;;
67585;SDS011;55785;47.946;20.540;2024-01-10T03:06:23;0.50;;;0.50;;
67585;SDS011;55785;47.946;20.540;2024-01-10T03:08:48;0.40;;;0.40;;
67585;SDS011;55785;47.946;20.540;2024-01-10T03:11:13;0.83;;;0.83;;
67585;SDS011;55785;47.946;20.540;2024-01-10T03:13:39;0.43;;;0.43;;
67585;SDS011;55785;47.946;20.540;2024-01-10T03:16:05;0.60;;;0.60;;
67585;SDS011;55785;47.946;20.540;2024-01-10T03:18:30;0.30;;;0.30;;
67585;SDS011;55785;47.946;20.540;2024-01-10T03:20:56;0.40;;;0.40;;
67585;SDS011;55785;47.946;20.540;2024-01-10T03:23:21;1.70;;;0.87;;
67585;SDS011;55785;47.946;20.540;2024-01-10T03:25:46;1.50;;;0.63;;
67585;SDS011;55785;47.946;20.540;2024-01-10T03:28:14;0.50;;;0.50;;
67585;SDS011;55785;47.946;20.540;2024-01-10T03:30:40;0.40;;;0.40;;
67585;SDS011;55785;47.946;20.540;2024-01-10T03:33:06;0.83;;;0.70;;
67585;SDS011;55785;47.946;20.540;2024-01-10T03:35:31;0.30;;;0.30;;
67585;SDS011;55785;47.946;20.540;2024-01-10T03:37:56;0.60;;;0.60;;
67585;SDS011;55785;47.946;20.540;2024-01-10T03:40:22;0.60;;;0.60;;
67585;SDS011;55785;47.946;20.540;2024-01-10T03:42:47;4.33;;;2.70;;
67585;SDS011;55785;47.946;20.540;2024-01-10T03:45:12;7.43;;;4.87;;
67585;SDS011;55785;47.946;20.540;2024-01-10T03:47:38;6.47;;;5.50;;
67585;SDS011;55785;47.946;20.540;2024-01-10T03:50:03;20.97;;;8.93;;
67585;SDS011;55785;47.946;20.540;2024-01-10T03:52:29;4.60;;;3.63;;
67585;SDS011;55785;47.946;20.540;2024-01-10T03:54:54;8.60;;;5.10;;
67585;SDS011;55785;47.946;20.540;2024-01-10T03:57:20;1.80;;;0.97;;
67585;SDS011;55785;47.946;20.540;2024-01-10T03:59:45;1.27;;;1.00;;
67585;SDS011;55785;47.946;20.540;2024-01-10T04:02:10;0.70;;;0.70;;
67585;SDS011;55785;47.946;20.540;2024-01-10T04:04:39;0.43;;;0.43;;
67585;SDS011;55785;47.946;20.540;2024-01-10T04:07:04;0.93;;;0.77;;
67585;SDS011;55785;47.946;20.540;2024-01-10T04:09:29;0.40;;;0.40;;
67585;SDS011;55785;47.946;20.540;2024-01-10T04:11:55;1.23;;;0.70;;
67585;SDS011;55785;47.946;20.540;2024-01-10T04:14:20;0.93;;;0.83;;
67585;SDS011;55785;47.946;20.540;2024-01-10T04:16:45;0.60;;;0.60;;
67585;SDS011;55785;47.946;20.540;2024-01-10T04:19:11;0.63;;;0.63;;
67585;SDS011;55785;47.946;20.540;2024-01-10T04:21:36;0.90;;;0.90;;
67585;SDS011;55785;47.946;20.540;2024-01-10T04:24:01;2.57;;;1.27;;
67585;SDS011;55785;47.946;20.540;2024-01-10T04:26:27;2.17;;;2.07;;
67585;SDS011;55785;47.946;20.540;2024-01-10T04:28:52;3.77;;;1.67;;
67585;SDS011;55785;47.946;20.540;2024-01-10T04:31:17;1.10;;;0.83;;
67585;SDS011;55785;47.946;20.540;2024-01-10T04:33:43;1.07;;;1.07;;
67585;SDS011;55785;47.946;20.540;2024-01-10T04:36:08;1.97;;;1.40;;
67585;SDS011;55785;47.946;20.540;2024-01-10T04:38:34;0.80;;;0.73;;
67585;SDS011;55785;47.946;20.540;2024-01-10T04:40:59;1.47;;;1.37;;
67585;SDS011;55785;47.946;20.540;2024-01-10T04:43:24;0.83;;;0.83;;
67585;SDS011;55785;47.946;20.540;2024-01-10T04:45:50;1.53;;;1.43;;
67585;SDS011;55785;47.946;20.540;2024-01-10T04:48:15;0.30;;;0.30;;
67585;SDS011;55785;47.946;20.540;2024-01-10T04:50:40;1.10;;;1.07;;
67585;SDS011;55785;47.946;20.540;2024-01-10T04:53:06;0.63;;;0.63;;
67585;SDS011;55785;47.946;20.540;2024-01-10T04:55:31;1.20;;;0.77;;
67585;SDS011;55785;47.946;20.540;2024-01-10T04:57:56;1.07;;;1.03;;
67585;SDS011;55785;47.946;20.540;2024-01-10T05:00:22;0.40;;;0.40;;
67585;SDS011;55785;47.946;20.540;2024-01-10T05:02:47;0.70;;;0.70;;
67585;SDS011;55785;47.946;20.540;2024-01-10T05:05:12;0.90;;;0.90;;
67585;SDS011;55785;47.946;20.540;2024-01-10T05:07:38;0.27;;;0.27;;
67585;SDS011;55785;47.946;20.540;2024-01-10T05:10:03;0.63;;;0.63;;
67585;SDS011;55785;47.946;20.540;2024-01-10T05:12:29;0.83;;;0.83;;
67585;SDS011;55785;47.946;20.540;2024-01-10T05:14:54;0.20;;;0.20;;
67585;SDS011;55785;47.946;20.540;2024-01-10T05:17:20;1.93;;;1.50;;
67585;SDS011;55785;47.946;20.540;2024-01-10T05:19:45;1.37;;;1.27;;
67585;SDS011;55785;47.946;20.540;2024-01-10T05:22:10;6.00;;;2.60;;
67585;SDS011;55785;47.946;20.540;2024-01-10T05:24:36;3.37;;;1.97;;
67585;SDS011;55785;47.946;20.540;2024-01-10T05:27:01;16.37;;;6.23;;
67585;SDS011;55785;47.946;20.540;2024-01-10T05:29:27;5.87;;;2.83;;
67585;SDS011;55785;47.946;20.540;2024-01-10T05:31:52;1.60;;;0.93;;
67585;SDS011;55785;47.946;20.540;2024-01-10T05:34:17;1.10;;;1.00;;
67585;SDS011;55785;47.946;20.540;2024-01-10T05:36:43;2.80;;;1.43;;
67585;SDS011;55785;47.946;20.540;2024-01-10T05:39:08;1.23;;;1.13;;
67585;SDS011;55785;47.946;20.540;2024-01-10T05:41:34;1.10;;;1.10;;
67585;SDS011;55785;47.946;20.540;2024-01-10T05:43:59;1.17;;;1.13;;
67585;SDS011;55785;47.946;20.540;2024-01-10T05:46:24;1.23;;;1.17;;
67585;SDS011;55785;47.946;20.540;2024-01-10T05:48:50;1.40;;;1.30;;
67585;SDS011;55785;47.946;20.540;2024-01-10T05:51:15;0.70;;;0.70;;
67585;SDS011;55785;47.946;20.540;2024-01-10T05:53:40;0.83;;;0.33;;
67585;SDS011;55785;47.946;20.540;2024-01-10T05:56:06;8.07;;;2.30;;
67585;SDS011;55785;47.946;20.540;2024-01-10T05:58:33;0.37;;;0.37;;
67585;SDS011;55785;47.946;20.540;2024-01-10T06:00:58;0.60;;;0.60;;
67585;SDS011;55785;47.946;20.540;2024-01-10T06:03:23;1.23;;;0.90;;
67585;SDS011;55785;47.946;20.540;2024-01-10T06:05:49;0.73;;;0.73;;
67585;SDS011;55785;47.946;20.540;2024-01-10T06:08:14;1.07;;;0.87;;
67585;SDS011;55785;47.946;20.540;2024-01-10T06:10:39;0.37;;;0.37;;
67585;SDS011;55785;47.946;20.540;2024-01-10T06:13:05;0.40;;;0.40;;
67585;SDS011;55785;47.946;20.540;2024-01-10T06:15:30;1.50;;;1.17;;
67585;SDS011;55785;47.946;20.540;2024-01-10T06:17:55;0.57;;;0.57;;
67585;SDS011;55785;47.946;20.540;2024-01-10T06:20:21;0.77;;;0.57;;
67585;SDS011;55785;47.946;20.540;2024-01-10T06:22:46;0.73;;;0.73;;
67585;SDS011;55785;47.946;20.540;2024-01-10T06:25:12;0.30;;;0.30;;
67585;SDS011;55785;47.946;20.540;2024-01-10T06:27:37;0.43;;;0.43;;
67585;SDS011;55785;47.946;20.540;2024-01-10T06:30:03;0.93;;;0.73;;
67585;SDS011;55785;47.946;20.540;2024-01-10T06:32:28;1.53;;;0.90;;
67585;SDS011;55785;47.946;20.540;2024-01-10T06:34:54;0.77;;;0.77;;
67585;SDS011;55785;47.946;20.540;2024-01-10T06:37:19;0.73;;;0.73;;
67585;SDS011;55785;47.946;20.540;2024-01-10T06:39:44;0.40;;;0.40;;
67585;SDS011;55785;47.946;20.540;2024-01-10T06:42:10;0.60;;;0.60;;
67585;SDS011;55785;47.946;20.540;2024-01-10T06:44:35;0.80;;;0.80;;
67585;SDS011;55785;47.946;20.540;2024-01-10T06:47:01;0.47;;;0.47;;
67585;SDS011;55785;47.946;20.540;2024-01-10T06:49:26;1.27;;;0.73;;
67585;SDS011;55785;47.946;20.540;2024-01-10T06:51:51;0.70;;;0.70;;
67585;SDS011;55785;47.946;20.540;2024-01-10T06:54:17;0.63;;;0.63;;
67585;SDS011;55785;47.946;20.540;2024-01-10T06:56:42;0.63;;;0.57;;
67585;SDS011;55785;47.946;20.540;2024-01-10T06:59:07;1.17;;;1.07;;
67585;SDS011;55785;47.946;20.540;2024-01-10T07:01:33;0.30;;;0.30;;
67585;SDS011;55785;47.946;20.540;2024-01-10T07:03:58;1.37;;;1.27;;
67585;SDS011;55785;47.946;20.540;2024-01-10T07:06:23;0.70;;;0.70;;
67585;SDS011;55785;47.946;20.540;2024-01-10T07:08:49;1.73;;;1.10;;
67585;SDS011;55785;47.946;20.540;2024-01-10T07:11:15;1.03;;;0.97;;
67585;SDS011;55785;47.946;20.540;2024-01-10T07:13:41;0.57;;;0.57;;
67585;SDS011;55785;47.946;20.540;2024-01-10T07:16:07;0.30;;;0.30;;
67585;SDS011;55785;47.946;20.540;2024-01-10T07:18:33;0.60;;;0.60;;
67585;SDS011;55785;47.946;20.540;2024-01-10T07:20:58;0.57;;;0.57;;
67585;SDS011;55785;47.946;20.540;2024-01-10T07:23:24;1.10;;;0.73;;
67585;SDS011;55785;47.946;20.540;2024-01-10T07:25:49;0.50;;;0.50;;
67585;SDS011;55785;47.946;20.540;2024-01-10T07:28:15;0.30;;;0.30;;
67585;SDS011;55785;47.946;20.540;2024-01-10T07:30:43;0.73;;;0.73;;
67585;SDS011;55785;47.946;20.540;2024-01-10T07:33:09;3.17;;;1.07;;
67585;SDS011;55785;47.946;20.540;2024-01-10T07:35:35;0.30;;;0.30;;
67585;SDS011;55785;47.946;20.540;2024-01-10T07:38:00;0.70;;;0.70;;
67585;SDS011;55785;47.946;20.540;2024-01-10T07:40:26;2.50;;;1.30;;
67585;SDS011;55785;47.946;20.540;2024-01-10T07:42:51;0.80;;;0.80;;
67585;SDS011;55785;47.946;20.540;2024-01-10T07:45:16;0.40;;;0.40;;
67585;SDS011;55785;47.946;20.540;2024-01-10T07:47:42;2.33;;;0.80;;
67585;SDS011;55785;47.946;20.540;2024-01-10T07:50:08;0.60;;;0.60;;
67585;SDS011;55785;47.946;20.540;2024-01-10T07:52:34;0.40;;;0.40;;
67585;SDS011;55785;47.946;20.540;2024-01-10T07:55:00;1.03;;;0.90;;
67585;SDS011;55785;47.946;20.540;2024-01-10T07:57:26;0.53;;;0.53;;
67585;SDS011;55785;47.946;20.540;2024-01-10T07:59:52;1.13;;;1.03;;
67585;SDS011;55785;47.946;20.540;2024-01-10T08:02:20;0.27;;;0.27;;
67585;SDS011;55785;47.946;20.540;2024-01-10T08:04:45;0.97;;;0.70;;
67585;SDS011;55785;47.946;20.540;2024-01-10T08:07:11;0.63;;;0.63;;
67585;SDS011;55785;47.946;20.540;2024-01-10T08:09:36;0.50;;;0.50;;
67585;SDS011;55785;47.946;20.540;2024-01-10T08:12:02;4.63;;;0.87;;
67585;SDS011;55785;47.946;20.540;2024-01-10T08:14:28;0.70;;;0.70;;
67585;SDS011;55785;47.946;20.540;2024-01-10T08:16:53;0.60;;;0.60;;
67585;SDS011;55785;47.946;20.540;2024-01-10T08:19:19;0.70;;;0.70;;
67585;SDS011;55785;47.946;20.540;2024-01-10T08:21:44;0.90;;;0.67;;
67585;SDS011;55785;47.946;20.540;2024-01-10T08:24:09;0.83;;;0.70;;
67585;SDS011;55785;47.946;20.540;2024-01-10T08:26:35;0.97;;;0.70;;
67585;SDS011;55785;47.946;20.540;2024-01-10T08:29:00;0.60;;;0.60;;
67585;SDS011;55785;47.946;20.540;2024-01-10T08:31:25;3.83;;;1.40;;
67585;SDS011;55785;47.946;20.540;2024-01-10T08:33:51;1.07;;;0.97;;
67585;SDS011;55785;47.946;20.540;2024-01-10T08:36:16;0.80;;;0.80;;
67585;SDS011;55785;47.946;20.540;2024-01-10T08:38:41;1.23;;;1.13;;
67585;SDS011;55785;47.946;20.540;2024-01-10T08:41:07;2.63;;;1.17;;
67585;SDS011;55785;47.946;20.540;2024-01-10T08:43:33;0.57;;;0.57;;
67585;SDS011;55785;47.946;20.540;2024-01-10T08:45:58;1.60;;;0.60;;
67585;SDS011;55785;47.946;20.540;2024-01-10T08:48:24;2.43;;;1.17;;
67585;SDS011;55785;47.946;20.540;2024-01-10T08:50:50;3.30;;;1.23;;
67585;SDS011;55785;47.946;20.540;2024-01-10T08:53:15;1.83;;;0.73;;
67585;SDS011;55785;47.946;20.540;2024-01-10T08:55:41;2.80;;;0.97;;
67585;SDS011;55785;47.946;20.540;2024-01-10T08:58:07;1.17;;;0.77;;
67585;SDS011;55785;47.946;20.540;2024-01-10T09:00:32;0.63;;;0.63;;
67585;SDS011;55785;47.946;20.540;2024-01-10T09:02:58;1.80;;;1.43;;
67585;SDS011;55785;47.946;20.540;2024-01-10T09:05:23;0.43;;;0.43;;
67585;SDS011;55785;47.946;20.540;2024-01-10T09:07:49;2.97;;;0.90;;
67585;SDS011;55785;47.946;20.540;2024-01-10T09:10:14;1.07;;;0.87;;
67585;SDS011;55785;47.946;20.540;2024-01-10T09:12:39;4.00;;;1.87;;
67585;SDS011;55785;47.946;20.540;2024-01-10T09:15:05;2.90;;;2.07;;
67585;SDS011;55785;47.946;20.540;2024-01-10T09:17:30;4.40;;;2.33;;
67585;SDS011;55785;47.946;20.540;2024-01-10T09:19:56;5.67;;;2.63;;
67585;SDS011;55785;47.946;20.540;2024-01-10T09:22:21;3.43;;;2.67;;
67585;SDS011;55785;47.946;20.540;2024-01-10T09:24:46;10.20;;;5.10;;
67585;SDS011;55785;47.946;20.540;2024-01-10T09:27:12;18.83;;;8.67;;
67585;SDS011;55785;47.946;20.540;2024-01-10T09:29:37;37.80;;;13.37;;
67585;SDS011;55785;47.946;20.540;2024-01-10T09:32:03;16.40;;;6.67;;
67585;SDS011;55785;47.946;20.540;2024-01-10T09:34:28;22.97;;;11.03;;
67585;SDS011;55785;47.946;20.540;2024-01-10T09:36:54;13.57;;;7.87;;
67585;SDS011;55785;47.946;20.540;2024-01-10T09:39:19;8.00;;;4.80;;
67585;SDS011;55785;47.946;20.540;2024-01-10T09:41:48;9.80;;;6.27;;
67585;SDS011;55785;47.946;20.540;2024-01-10T09:44:17;9.90;;;4.53;;
67585;SDS011;55785;47.946;20.540;2024-01-10T09:46:43;5.50;;;3.47;;
67585;SDS011;55785;47.946;20.540;2024-01-10T09:49:12;1.50;;;0.97;;
67585;SDS011;55785;47.946;20.540;2024-01-10T09:51:38;3.50;;;1.47;;
67585;SDS011;55785;47.946;20.540;2024-01-10T09:54:04;3.83;;;2.93;;
67585;SDS011;55785;47.946;20.540;2024-01-10T09:56:29;20.07;;;6.50;;
67585;SDS011;55785;47.946;20.540;2024-01-10T09:58:55;7.30;;;3.63;;
67585;SDS011;55785;47.946;20.540;2024-01-10T10:01:23;15.57;;;6.23;;
67585;SDS011;55785;47.946;20.540;2024-01-10T10:03:49;10.27;;;6.97;;
67585;SDS011;55785;47.946;20.540;2024-01-10T10:06:15;6.13;;;4.60;;
67585;SDS011;55785;47.946;20.540;2024-01-10T10:08:41;5.33;;;3.63;;
67585;SDS011;55785;47.946;20.540;2024-01-10T10:11:06;6.13;;;3.63;;
67585;SDS011;55785;47.946;20.540;2024-01-10T10:13:32;6.40;;;3.70;;
67585;SDS011;55785;47.946;20.540;2024-01-10T10:16:01;5.17;;;3.37;;
67585;SDS011;55785;47.946;20.540;2024-01-10T10:18:27;4.73;;;2.80;;
67585;SDS011;55785;47.946;20.540;2024-01-10T10:21:10;6.33;;;3.50;;
67585;SDS011;55785;47.946;20.540;2024-01-10T10:23:37;4.67;;;2.33;;
67585;SDS011;55785;47.946;20.540;2024-01-10T10:26:36;3.93;;;3.40;;
67585;SDS011;55785;47.946;20.540;2024-01-10T10:28:57;3.40;;;2.20;;
67585;SDS011;55785;47.946;20.540;2024-01-10T10:31:22;7.87;;;4.97;;
67585;SDS011;55785;47.946;20.540;2024-01-10T10:33:49;6.97;;;3.70;;
67585;SDS011;55785;47.946;20.540;2024-01-10T10:36:14;4.83;;;2.20;;
67585;SDS011;55785;47.946;20.540;2024-01-10T10:38:40;21.07;;;12.50;;
67585;SDS011;55785;47.946;20.540;2024-01-10T10:41:06;5.60;;;2.67;;
67585;SDS011;55785;47.946;20.540;2024-01-10T10:43:33;5.93;;;2.20;;
67585;SDS011;55785;47.946;20.540;2024-01-10T10:45:59;5.20;;;2.23;;
67585;SDS011;55785;47.946;20.540;2024-01-10T10:48:25;1.83;;;0.97;;
67585;SDS011;55785;47.946;20.540;2024-01-10T10:50:59;3.77;;;1.10;;
67585;SDS011;55785;47.946;20.540;2024-01-10T10:53:29;6.70;;;2.03;;
67585;SDS011;55785;47.946;20.540;2024-01-10T10:55:56;1.27;;;0.97;;
67585;SDS011;55785;47.946;20.540;2024-01-10T10:58:22;3.97;;;1.90;;
67585;SDS011;55785;47.946;20.540;2024-01-10T11:00:48;4.20;;;2.20;;
67585;SDS011;55785;47.946;20.540;2024-01-10T11:03:15;1.90;;;1.30;;
67585;SDS011;55785;47.946;20.540;2024-01-10T11:05:42;4.10;;;1.43;;
67585;SDS011;55785;47.946;20.540;2024-01-10T11:08:10;4.07;;;2.00;;
67585;SDS011;55785;47.946;20.540;2024-01-10T11:10:38;4.27;;;2.43;;
67585;SDS011;55785;47.946;20.540;2024-01-10T11:18:58;5.80;;;2.37;;
67585;SDS011;55785;47.946;20.540;2024-01-10T11:24:35;2.97;;;1.87;;
67585;SDS011;55785;47.946;20.540;2024-01-10T11:27:11;2.63;;;1.77;;
67585;SDS011;55785;47.946;20.540;2024-01-10T11:29:38;4.37;;;2.60;;
67585;SDS011;55785;47.946;20.540;2024-01-10T11:32:04;4.23;;;2.00;;
67585;SDS011;55785;47.946;20.540;2024-01-10T11:34:30;5.30;;;2.00;;
67585;SDS011;55785;47.946;20.540;2024-01-10T11:37:11;7.47;;;2.87;;
67585;SDS011;55785;47.946;20.540;2024-01-10T11:39:37;2.63;;;1.67;;
67585;SDS011;55785;47.946;20.540;2024-01-10T11:42:05;4.97;;;2.20;;
67585;SDS011;55785;47.946;20.540;2024-01-10T11:44:32;4.90;;;2.73;;
67585;SDS011;55785;47.946;20.540;2024-01-10T11:46:58;6.80;;;2.60;;
67585;SDS011;55785;47.946;20.540;2024-01-10T11:49:24;6.57;;;3.13;;
67585;SDS011;55785;47.946;20.540;2024-01-10T11:51:56;7.17;;;3.57;;
67585;SDS011;55785;47.946;20.540;2024-01-10T11:57:29;4.10;;;1.77;;
67585;SDS011;55785;47.946;20.540;2024-01-10T12:02:21;3.08;;;2.05;;
67585;SDS011;55785;47.946;20.540;2024-01-10T12:04:47;4.27;;;2.50;;
67585;SDS011;55785;47.946;20.540;2024-01-10T12:07:13;4.53;;;2.63;;
67585;SDS011;55785;47.946;20.540;2024-01-10T12:09:39;6.70;;;3.23;;
67585;SDS011;55785;47.946;20.540;2024-01-10T12:12:05;3.27;;;2.23;;
67585;SDS011;55785;47.946;20.540;2024-01-10T12:14:31;4.77;;;3.03;;
67585;SDS011;55785;47.946;20.540;2024-01-10T12:16:57;5.70;;;2.87;;
67585;SDS011;55785;47.946;20.540;2024-01-10T12:19:22;6.20;;;3.00;;
67585;SDS011;55785;47.946;20.540;2024-01-10T12:21:48;5.73;;;2.90;;
67585;SDS011;55785;47.946;20.540;2024-01-10T12:24:14;5.00;;;2.97;;
67585;SDS011;55785;47.946;20.540;2024-01-10T12:26:46;5.83;;;3.13;;
67585;SDS011;55785;47.946;20.540;2024-01-10T12:29:12;5.50;;;2.63;;
67585;SDS011;55785;47.946;20.540;2024-01-10T12:31:37;8.87;;;4.07;;
67585;SDS011;55785;47.946;20.540;2024-01-10T12:34:03;7.00;;;3.50;;
67585;SDS011;55785;47.946;20.540;2024-01-10T12:36:29;14.87;;;2.83;;
67585;SDS011;55785;47.946;20.540;2024-01-10T12:38:54;7.40;;;2.10;;
67585;SDS011;55785;47.946;20.540;2024-01-10T12:41:19;7.03;;;2.90;;
67585;SDS011;55785;47.946;20.540;2024-01-10T12:43:48;5.33;;;2.87;;
67585;SDS011;55785;47.946;20.540;2024-01-10T12:46:14;7.07;;;2.47;;
67585;SDS011;55785;47.946;20.540;2024-01-10T12:48:40;6.90;;;3.13;;
67585;SDS011;55785;47.946;20.540;2024-01-10T12:51:10;4.13;;;2.80;;
67585;SDS011;55785;47.946;20.540;2024-01-10T12:53:37;19.27;;;9.03;;
67585;SDS011;55785;47.946;20.540;2024-01-10T12:56:05;4.90;;;2.90;;
67585;SDS011;55785;47.946;20.540;2024-01-10T12:58:31;6.50;;;4.07;;
67585;SDS011;55785;47.946;20.540;2024-01-10T13:00:58;10.27;;;4.93;;
67585;SDS011;55785;47.946;20.540;2024-01-10T13:03:23;5.93;;;2.47;;
67585;SDS011;55785;47.946;20.540;2024-01-10T13:05:50;11.63;;;3.60;;
67585;SDS011;55785;47.946;20.540;2024-01-10T13:08:15;18.47;;;12.03;;
67585;SDS011;55785;47.946;20.540;2024-01-10T13:10:41;8.67;;;5.33;;
67585;SDS011;55785;47.946;20.540;2024-01-10T13:13:07;4.77;;;2.53;;
67585;SDS011;55785;47.946;20.540;2024-01-10T13:15:32;4.90;;;3.03;;
67585;SDS011;55785;47.946;20.540;2024-01-10T13:17:58;7.67;;;4.70;;
67585;SDS011;55785;47.946;20.540;2024-01-10T13:20:23;8.17;;;2.10;;
67585;SDS011;55785;47.946;20.540;2024-01-10T13:22:49;6.70;;;2.33;;
67585;SDS011;55785;47.946;20.540;2024-01-10T13:25:15;5.00;;;2.30;;
67585;SDS011;55785;47.946;20.540;2024-01-10T13:27:40;6.77;;;2.50;;
67585;SDS011;55785;47.946;20.540;2024-01-10T13:30:05;3.60;;;2.40;;
67585;SDS011;55785;47.946;20.540;2024-01-10T13:32:31;5.77;;;2.43;;
67585;SDS011;55785;47.946;20.540;2024-01-10T13:34:57;3.00;;;2.10;;
67585;SDS011;55785;47.946;20.540;2024-01-10T13:37:22;5.50;;;2.60;;
67585;SDS011;55785;47.946;20.540;2024-01-10T13:39:48;4.97;;;2.43;;
67585;SDS011;55785;47.946;20.540;2024-01-10T13:42:13;7.63;;;3.27;;
67585;SDS011;55785;47.946;20.540;2024-01-10T13:44:38;7.70;;;3.13;;
67585;SDS011;55785;47.946;20.540;2024-01-10T13:47:04;4.13;;;2.53;;
67585;SDS011;55785;47.946;20.540;2024-01-10T13:49:29;3.47;;;1.80;;
67585;SDS011;55785;47.946;20.540;2024-01-10T13:51:55;4.87;;;2.80;;
67585;SDS011;55785;47.946;20.540;2024-01-10T13:54:20;2.97;;;1.80;;
67585;SDS011;55785;47.946;20.540;2024-01-10T13:56:45;7.17;;;3.00;;
67585;SDS011;55785;47.946;20.540;2024-01-10T13:59:11;10.33;;;4.63;;
67585;SDS011;55785;47.946;20.540;2024-01-10T14:01:36;4.33;;;2.40;;
67585;SDS011;55785;47.946;20.540;2024-01-10T14:04:02;2.60;;;1.93;;
67585;SDS011;55785;47.946;20.540;2024-01-10T14:06:27;4.33;;;1.97;;
67585;SDS011;55785;47.946;20.540;2024-01-10T14:08:52;5.33;;;2.10;;
67585;SDS011;55785;47.946;20.540;2024-01-10T14:11:18;4.67;;;2.30;;
67585;SDS011;55785;47.946;20.540;2024-01-10T14:13:43;6.30;;;1.77;;
67585;SDS011;55785;47.946;20.540;2024-01-10T14:16:09;2.37;;;1.63;;
67585;SDS011;55785;47.946;20.540;2024-01-10T14:18:34;13.97;;;2.47;;
67585;SDS011;55785;47.946;20.540;2024-01-10T14:21:00;4.50;;;1.67;;
67585;SDS011;55785;47.946;20.540;2024-01-10T14:23:25;3.80;;;2.10;;
67585;SDS011;55785;47.946;20.540;2024-01-10T14:25:50;3.23;;;1.97;;
67585;SDS011;55785;47.946;20.540;2024-01-10T14:28:16;3.13;;;1.63;;
67585;SDS011;55785;47.946;20.540;2024-01-10T14:30:41;2.43;;;1.70;;
67585;SDS011;55785;47.946;20.540;2024-01-10T14:33:06;5.07;;;2.70;;
67585;SDS011;55785;47.946;20.540;2024-01-10T14:35:32;3.30;;;1.60;;
67585;SDS011;55785;47.946;20.540;2024-01-10T14:37:57;2.50;;;1.80;;
67585;SDS011;55785;47.946;20.540;2024-01-10T14:40:22;3.97;;;2.07;;